sensor_id;sensor_type;location;lat;lon;timestamp;P1;durP1;ratioP1;P2;durP2;ratioP2
7523;SDS011;3803;51.666;7.630;2023-04-24T00:00:12;1.30;;;1.10;;
7523;SDS011;3803;51.666;7.630;2023-04-24T00:00:36;1.38;;;1.10;;
7523;SDS011;3803;51.666;7.630;2023-04-24T00:00:58;1.10;;;1.00;;
7523;SDS011;3803;51.666;7.630;2023-04-24T00:01:21;1.10;;;1.00;;
7523;SDS011;3803;51.666;7.630;2023-04-24T00:01:41;1.10;;;1.00;;
7523;SDS011;3803;51.666;7.630;2023-04-24T00:02:02;1.30;;;1.10;;
7523;SDS011;3803;51.666;7.630;2023-04-24T00:02:23;1.30;;;1.00;;
7523;SDS011;3803;51.666;7.630;2023-04-24T00:02:44;1.30;;;1.00;;
7523;SDS011;3803;51.666;7.630;2023-04-24T00:03:07;1.10;;;1.00;;
7523;SDS011;3803;51.666;7.630;2023-04-24T00:03:28;1.27;;;1.17;;
7523;SDS011;3803;51.666;7.630;2023-04-24T00:03:49;1.20;;;1.10;;
7523;SDS011;3803;51.666;7.630;2023-04-24T00:04:10;1.20;;;1.10;;
7523;SDS011;3803;51.666;7.630;2023-04-24T00:04:31;1.00;;;0.90;;
7523;SDS011;3803;51.666;7.630;2023-04-24T00:04:52;1.17;;;1.00;;
7523;SDS011;3803;51.666;7.630;2023-04-24T00:05:13;1.48;;;1.00;;
7523;SDS011;3803;51.666;7.630;2023-04-24T00:05:35;1.48;;;1.10;;
7523;SDS011;3803;51.666;7.630;2023-04-24T00:05:56;1.48;;;1.20;;
7523;SDS011;3803;51.666;7.630;2023-04-24T00:06:16;1.30;;;1.20;;
7523;SDS011;3803;51.666;7.630;2023-04-24T00:06:37;1.80;;;1.00;;
7523;SDS011;3803;51.666;7.630;2023-04-24T00:06:59;1.70;;;1.08;;
7523;SDS011;3803;51.666;7.630;2023-04-24T00:07:20;1.73;;;1.10;;
7523;SDS011;3803;51.666;7.630;2023-04-24T00:07:41;1.77;;;1.20;;
7523;SDS011;3803;51.666;7.630;2023-04-24T00:08:02;1.90;;;1.20;;
7523;SDS011;3803;51.666;7.630;2023-04-24T00:08:22;1.75;;;1.15;;
7523;SDS011;3803;51.666;7.630;2023-04-24T00:08:44;1.10;;;1.00;;
7523;SDS011;3803;51.666;7.630;2023-04-24T00:09:04;1.10;;;1.00;;
7523;SDS011;3803;51.666;7.630;2023-04-24T00:09:25;1.17;;;1.07;;
7523;SDS011;3803;51.666;7.630;2023-04-24T00:09:51;1.30;;;1.20;;
7523;SDS011;3803;51.666;7.630;2023-04-24T00:10:12;1.20;;;1.10;;
7523;SDS011;3803;51.666;7.630;2023-04-24T00:10:33;1.20;;;1.10;;
7523;SDS011;3803;51.666;7.630;2023-04-24T00:10:53;3.75;;;1.20;;
7523;SDS011;3803;51.666;7.630;2023-04-24T00:11:14;3.60;;;1.20;;
7523;SDS011;3803;51.666;7.630;2023-04-24T00:11:35;3.05;;;1.35;;
7523;SDS011;3803;51.666;7.630;2023-04-24T00:11:56;1.45;;;1.25;;
7523;SDS011;3803;51.666;7.630;2023-04-24T00:12:16;1.77;;;1.27;;
7523;SDS011;3803;51.666;7.630;2023-04-24T00:12:38;1.70;;;1.20;;
7523;SDS011;3803;51.666;7.630;2023-04-24T00:12:59;1.20;;;1.10;;
7523;SDS011;3803;51.666;7.630;2023-04-24T00:13:20;1.15;;;1.05;;
7523;SDS011;3803;51.666;7.630;2023-04-24T00:13:40;1.20;;;1.10;;
7523;SDS011;3803;51.666;7.630;2023-04-24T00:14:01;1.30;;;1.20;;
7523;SDS011;3803;51.666;7.630;2023-04-24T00:14:22;1.88;;;1.30;;
7523;SDS011;3803;51.666;7.630;2023-04-24T00:14:43;2.45;;;1.20;;
7523;SDS011;3803;51.666;7.630;2023-04-24T00:15:04;2.70;;;1.20;;
7523;SDS011;3803;51.666;7.630;2023-04-24T00:15:25;1.90;;;1.20;;
7523;SDS011;3803;51.666;7.630;2023-04-24T00:15:46;1.98;;;1.35;;
7523;SDS011;3803;51.666;7.630;2023-04-24T00:16:07;1.83;;;1.33;;
7523;SDS011;3803;51.666;7.630;2023-04-24T00:16:28;1.73;;;1.37;;
7523;SDS011;3803;51.666;7.630;2023-04-24T00:16:49;1.30;;;1.20;;
7523;SDS011;3803;51.666;7.630;2023-04-24T00:17:09;1.95;;;1.20;;
7523;SDS011;3803;51.666;7.630;2023-04-24T00:17:30;1.90;;;1.20;;
7523;SDS011;3803;51.666;7.630;2023-04-24T00:17:50;1.80;;;1.00;;
7523;SDS011;3803;51.666;7.630;2023-04-24T00:18:13;1.20;;;1.10;;
7523;SDS011;3803;51.666;7.630;2023-04-24T00:18:34;1.30;;;1.20;;
7523;SDS011;3803;51.666;7.630;2023-04-24T00:18:54;1.60;;;1.40;;
7523;SDS011;3803;51.666;7.630;2023-04-24T00:19:15;2.00;;;1.30;;
7523;SDS011;3803;51.666;7.630;2023-04-24T00:19:36;2.00;;;1.30;;
7523;SDS011;3803;51.666;7.630;2023-04-24T00:19:57;2.38;;;1.10;;
7523;SDS011;3803;51.666;7.630;2023-04-24T00:20:21;2.05;;;1.20;;
7523;SDS011;3803;51.666;7.630;2023-04-24T00:20:42;1.90;;;1.20;;
7523;SDS011;3803;51.666;7.630;2023-04-24T00:21:04;1.40;;;1.30;;
7523;SDS011;3803;51.666;7.630;2023-04-24T00:21:25;2.50;;;1.30;;
7523;SDS011;3803;51.666;7.630;2023-04-24T00:21:46;2.63;;;1.30;;
7523;SDS011;3803;51.666;7.630;2023-04-24T00:22:10;1.65;;;1.13;;
7523;SDS011;3803;51.666;7.630;2023-04-24T00:22:31;1.90;;;1.30;;
7523;SDS011;3803;51.666;7.630;2023-04-24T00:22:51;1.90;;;1.40;;
7523;SDS011;3803;51.666;7.630;2023-04-24T00:23:12;1.83;;;1.30;;
7523;SDS011;3803;51.666;7.630;2023-04-24T00:23:33;2.50;;;1.10;;
7523;SDS011;3803;51.666;7.630;2023-04-24T00:23:53;2.40;;;1.10;;
7523;SDS011;3803;51.666;7.630;2023-04-24T00:24:14;1.63;;;1.10;;
7523;SDS011;3803;51.666;7.630;2023-04-24T00:24:35;1.40;;;1.10;;
7523;SDS011;3803;51.666;7.630;2023-04-24T00:24:56;1.40;;;1.10;;
7523;SDS011;3803;51.666;7.630;2023-04-24T00:25:17;1.20;;;1.02;;
7523;SDS011;3803;51.666;7.630;2023-04-24T00:25:38;1.15;;;1.05;;
7523;SDS011;3803;51.666;7.630;2023-04-24T00:25:59;1.20;;;1.10;;
7523;SDS011;3803;51.666;7.630;2023-04-24T00:26:19;1.60;;;1.20;;
7523;SDS011;3803;51.666;7.630;2023-04-24T00:26:40;1.67;;;1.30;;
7523;SDS011;3803;51.666;7.630;2023-04-24T00:27:00;1.60;;;1.40;;
7523;SDS011;3803;51.666;7.630;2023-04-24T00:27:22;1.50;;;1.40;;
7523;SDS011;3803;51.666;7.630;2023-04-24T00:27:44;1.88;;;1.50;;
7523;SDS011;3803;51.666;7.630;2023-04-24T00:28:04;2.10;;;1.60;;
7523;SDS011;3803;51.666;7.630;2023-04-24T00:28:25;1.90;;;1.48;;
7523;SDS011;3803;51.666;7.630;2023-04-24T00:28:45;1.40;;;1.20;;
7523;SDS011;3803;51.666;7.630;2023-04-24T00:29:06;1.10;;;1.00;;
7523;SDS011;3803;51.666;7.630;2023-04-24T00:29:27;1.30;;;1.20;;
7523;SDS011;3803;51.666;7.630;2023-04-24T00:29:48;1.52;;;1.30;;
7523;SDS011;3803;51.666;7.630;2023-04-24T00:30:09;1.80;;;1.25;;
7523;SDS011;3803;51.666;7.630;2023-04-24T00:30:30;1.35;;;1.05;;
7523;SDS011;3803;51.666;7.630;2023-04-24T00:30:52;1.65;;;1.10;;
7523;SDS011;3803;51.666;7.630;2023-04-24T00:31:13;1.60;;;1.20;;
7523;SDS011;3803;51.666;7.630;2023-04-24T00:31:34;1.63;;;1.30;;
7523;SDS011;3803;51.666;7.630;2023-04-24T00:31:54;1.35;;;1.25;;
7523;SDS011;3803;51.666;7.630;2023-04-24T00:32:15;1.40;;;1.30;;
7523;SDS011;3803;51.666;7.630;2023-04-24T00:32:37;1.83;;;1.30;;
7523;SDS011;3803;51.666;7.630;2023-04-24T00:32:58;1.80;;;1.20;;
7523;SDS011;3803;51.666;7.630;2023-04-24T00:33:19;1.70;;;1.20;;
7523;SDS011;3803;51.666;7.630;2023-04-24T00:33:40;2.15;;;1.15;;
7523;SDS011;3803;51.666;7.630;2023-04-24T00:34:01;2.10;;;1.10;;
7523;SDS011;3803;51.666;7.630;2023-04-24T00:34:22;2.10;;;1.15;;
7523;SDS011;3803;51.666;7.630;2023-04-24T00:34:43;1.20;;;1.10;;
7523;SDS011;3803;51.666;7.630;2023-04-24T00:35:04;1.20;;;1.10;;
7523;SDS011;3803;51.666;7.630;2023-04-24T00:35:26;1.30;;;1.20;;
7523;SDS011;3803;51.666;7.630;2023-04-24T00:35:46;1.40;;;1.30;;
7523;SDS011;3803;51.666;7.630;2023-04-24T00:36:07;1.50;;;1.40;;
7523;SDS011;3803;51.666;7.630;2023-04-24T00:36:28;1.48;;;1.38;;
7523;SDS011;3803;51.666;7.630;2023-04-24T00:36:48;1.40;;;1.30;;
7523;SDS011;3803;51.666;7.630;2023-04-24T00:37:12;1.70;;;1.20;;
7523;SDS011;3803;51.666;7.630;2023-04-24T00:37:32;1.70;;;1.20;;
7523;SDS011;3803;51.666;7.630;2023-04-24T00:37:53;1.63;;;1.17;;
7523;SDS011;3803;51.666;7.630;2023-04-24T00:38:14;1.20;;;1.10;;
7523;SDS011;3803;51.666;7.630;2023-04-24T00:38:36;1.40;;;1.30;;
7523;SDS011;3803;51.666;7.630;2023-04-24T00:38:57;1.33;;;1.23;;
7523;SDS011;3803;51.666;7.630;2023-04-24T00:39:18;1.40;;;1.23;;
7523;SDS011;3803;51.666;7.630;2023-04-24T00:39:40;2.00;;;1.20;;
7523;SDS011;3803;51.666;7.630;2023-04-24T00:40:00;2.13;;;1.30;;
7523;SDS011;3803;51.666;7.630;2023-04-24T00:40:21;3.00;;;1.40;;
7523;SDS011;3803;51.666;7.630;2023-04-24T00:40:41;2.70;;;1.40;;
7523;SDS011;3803;51.666;7.630;2023-04-24T00:41:02;2.15;;;1.30;;
7523;SDS011;3803;51.666;7.630;2023-04-24T00:41:24;1.75;;;1.30;;
7523;SDS011;3803;51.666;7.630;2023-04-24T00:41:45;1.30;;;1.20;;
7523;SDS011;3803;51.666;7.630;2023-04-24T00:42:06;1.67;;;1.10;;
7523;SDS011;3803;51.666;7.630;2023-04-24T00:42:27;1.70;;;1.17;;
7523;SDS011;3803;51.666;7.630;2023-04-24T00:42:47;2.67;;;1.20;;
7523;SDS011;3803;51.666;7.630;2023-04-24T00:43:09;2.20;;;1.30;;
7523;SDS011;3803;51.666;7.630;2023-04-24T00:43:30;1.83;;;1.30;;
7523;SDS011;3803;51.666;7.630;2023-04-24T00:43:51;1.50;;;1.20;;
7523;SDS011;3803;51.666;7.630;2023-04-24T00:44:12;1.80;;;1.40;;
7523;SDS011;3803;51.666;7.630;2023-04-24T00:44:33;1.60;;;1.30;;
7523;SDS011;3803;51.666;7.630;2023-04-24T00:44:55;1.42;;;1.25;;
7523;SDS011;3803;51.666;7.630;2023-04-24T00:45:16;1.40;;;1.30;;
7523;SDS011;3803;51.666;7.630;2023-04-24T00:45:37;1.80;;;1.30;;
7523;SDS011;3803;51.666;7.630;2023-04-24T00:45:58;2.28;;;1.40;;
7523;SDS011;3803;51.666;7.630;2023-04-24T00:46:21;2.35;;;1.40;;
7523;SDS011;3803;51.666;7.630;2023-04-24T00:46:42;2.40;;;1.40;;
7523;SDS011;3803;51.666;7.630;2023-04-24T00:47:03;2.03;;;1.40;;
7523;SDS011;3803;51.666;7.630;2023-04-24T00:47:24;1.90;;;1.40;;
7523;SDS011;3803;51.666;7.630;2023-04-24T00:47:45;1.50;;;1.40;;
7523;SDS011;3803;51.666;7.630;2023-04-24T00:48:07;1.50;;;1.40;;
7523;SDS011;3803;51.666;7.630;2023-04-24T00:48:28;1.50;;;1.40;;
7523;SDS011;3803;51.666;7.630;2023-04-24T00:48:50;1.70;;;1.30;;
7523;SDS011;3803;51.666;7.630;2023-04-24T00:49:11;1.50;;;1.20;;
7523;SDS011;3803;51.666;7.630;2023-04-24T00:49:33;3.10;;;1.40;;
7523;SDS011;3803;51.666;7.630;2023-04-24T00:49:54;2.70;;;1.40;;
7523;SDS011;3803;51.666;7.630;2023-04-24T00:50:15;1.55;;;1.40;;
7523;SDS011;3803;51.666;7.630;2023-04-24T00:50:37;1.40;;;1.30;;
7523;SDS011;3803;51.666;7.630;2023-04-24T00:50:59;1.80;;;1.40;;
7523;SDS011;3803;51.666;7.630;2023-04-24T00:51:19;1.87;;;1.40;;
7523;SDS011;3803;51.666;7.630;2023-04-24T00:51:41;1.98;;;1.50;;
7523;SDS011;3803;51.666;7.630;2023-04-24T00:52:06;2.20;;;1.40;;
7523;SDS011;3803;51.666;7.630;2023-04-24T00:52:28;2.67;;;1.35;;
7523;SDS011;3803;51.666;7.630;2023-04-24T00:52:51;1.92;;;1.30;;
7523;SDS011;3803;51.666;7.630;2023-04-24T00:53:12;1.90;;;1.30;;
7523;SDS011;3803;51.666;7.630;2023-04-24T00:53:33;1.40;;;1.30;;
7523;SDS011;3803;51.666;7.630;2023-04-24T00:54:00;1.30;;;1.20;;
7523;SDS011;3803;51.666;7.630;2023-04-24T00:54:21;1.30;;;1.20;;
7523;SDS011;3803;51.666;7.630;2023-04-24T00:54:42;1.70;;;1.30;;
7523;SDS011;3803;51.666;7.630;2023-04-24T00:55:02;2.50;;;1.60;;
7523;SDS011;3803;51.666;7.630;2023-04-24T00:55:24;2.60;;;1.60;;
7523;SDS011;3803;51.666;7.630;2023-04-24T00:55:45;2.13;;;1.50;;
7523;SDS011;3803;51.666;7.630;2023-04-24T00:56:07;1.45;;;1.30;;
7523;SDS011;3803;51.666;7.630;2023-04-24T00:56:28;1.85;;;1.30;;
7523;SDS011;3803;51.666;7.630;2023-04-24T00:56:49;2.15;;;1.30;;
7523;SDS011;3803;51.666;7.630;2023-04-24T00:57:11;2.50;;;1.40;;
7523;SDS011;3803;51.666;7.630;2023-04-24T00:57:35;1.63;;;1.40;;
7523;SDS011;3803;51.666;7.630;2023-04-24T00:57:56;2.20;;;1.60;;
7523;SDS011;3803;51.666;7.630;2023-04-24T00:58:17;2.58;;;1.52;;
7523;SDS011;3803;51.666;7.630;2023-04-24T00:58:37;3.50;;;1.60;;
7523;SDS011;3803;51.666;7.630;2023-04-24T00:58:58;3.10;;;1.50;;
7523;SDS011;3803;51.666;7.630;2023-04-24T00:59:19;3.00;;;1.67;;
7523;SDS011;3803;51.666;7.630;2023-04-24T00:59:40;1.90;;;1.50;;
7523;SDS011;3803;51.666;7.630;2023-04-24T01:00:02;2.13;;;1.50;;
7523;SDS011;3803;51.666;7.630;2023-04-24T01:00:26;1.70;;;1.38;;
7523;SDS011;3803;51.666;7.630;2023-04-24T01:00:48;1.70;;;1.40;;
7523;SDS011;3803;51.666;7.630;2023-04-24T01:01:10;1.50;;;1.40;;
7523;SDS011;3803;51.666;7.630;2023-04-24T01:01:31;1.52;;;1.42;;
7523;SDS011;3803;51.666;7.630;2023-04-24T01:01:52;1.60;;;1.50;;
7523;SDS011;3803;51.666;7.630;2023-04-24T01:02:13;1.70;;;1.60;;
7523;SDS011;3803;51.666;7.630;2023-04-24T01:02:36;1.90;;;1.75;;
7523;SDS011;3803;51.666;7.630;2023-04-24T01:03:00;2.60;;;1.80;;
7523;SDS011;3803;51.666;7.630;2023-04-24T01:03:25;2.70;;;1.77;;
7523;SDS011;3803;51.666;7.630;2023-04-24T01:03:49;2.53;;;1.42;;
7523;SDS011;3803;51.666;7.630;2023-04-24T01:04:11;2.72;;;1.40;;
7523;SDS011;3803;51.666;7.630;2023-04-24T01:04:32;2.65;;;1.40;;
7523;SDS011;3803;51.666;7.630;2023-04-24T01:04:53;1.42;;;1.33;;
7523;SDS011;3803;51.666;7.630;2023-04-24T01:05:14;1.40;;;1.30;;
7523;SDS011;3803;51.666;7.630;2023-04-24T01:05:35;1.45;;;1.35;;
7523;SDS011;3803;51.666;7.630;2023-04-24T01:05:56;1.48;;;1.38;;
7523;SDS011;3803;51.666;7.630;2023-04-24T01:06:18;1.60;;;1.50;;
7523;SDS011;3803;51.666;7.630;2023-04-24T01:06:39;1.75;;;1.65;;
7523;SDS011;3803;51.666;7.630;2023-04-24T01:07:02;1.70;;;1.60;;
7523;SDS011;3803;51.666;7.630;2023-04-24T01:08:20;2.30;;;1.50;;
7523;SDS011;3803;51.666;7.630;2023-04-24T01:08:44;2.00;;;1.40;;
7523;SDS011;3803;51.666;7.630;2023-04-24T01:09:07;1.95;;;1.50;;
7523;SDS011;3803;51.666;7.630;2023-04-24T01:09:30;1.73;;;1.52;;
7523;SDS011;3803;51.666;7.630;2023-04-24T01:09:52;2.10;;;1.60;;
7523;SDS011;3803;51.666;7.630;2023-04-24T01:10:13;1.70;;;1.40;;
7523;SDS011;3803;51.666;7.630;2023-04-24T01:10:34;1.58;;;1.30;;
7523;SDS011;3803;51.666;7.630;2023-04-24T01:10:58;1.67;;;1.50;;
7523;SDS011;3803;51.666;7.630;2023-04-24T01:11:18;1.70;;;1.50;;
7523;SDS011;3803;51.666;7.630;2023-04-24T01:11:40;1.70;;;1.60;;
7523;SDS011;3803;51.666;7.630;2023-04-24T01:12:02;1.70;;;1.60;;
7523;SDS011;3803;51.666;7.630;2023-04-24T01:12:23;1.90;;;1.70;;
7523;SDS011;3803;51.666;7.630;2023-04-24T01:12:44;2.28;;;1.70;;
7523;SDS011;3803;51.666;7.630;2023-04-24T01:13:09;2.42;;;1.60;;
7523;SDS011;3803;51.666;7.630;2023-04-24T01:13:31;2.28;;;1.50;;
7523;SDS011;3803;51.666;7.630;2023-04-24T01:13:52;2.88;;;1.40;;
7523;SDS011;3803;51.666;7.630;2023-04-24T01:14:13;2.63;;;1.40;;
7523;SDS011;3803;51.666;7.630;2023-04-24T01:14:33;2.30;;;1.50;;
7523;SDS011;3803;51.666;7.630;2023-04-24T01:14:54;1.97;;;1.53;;
7523;SDS011;3803;51.666;7.630;2023-04-24T01:15:16;2.50;;;1.70;;
7523;SDS011;3803;51.666;7.630;2023-04-24T01:15:38;2.50;;;1.80;;
7523;SDS011;3803;51.666;7.630;2023-04-24T01:15:59;2.17;;;1.70;;
7523;SDS011;3803;51.666;7.630;2023-04-24T01:16:22;1.80;;;1.60;;
7523;SDS011;3803;51.666;7.630;2023-04-24T01:16:42;2.42;;;1.60;;
7523;SDS011;3803;51.666;7.630;2023-04-24T01:17:03;2.40;;;1.60;;
7523;SDS011;3803;51.666;7.630;2023-04-24T01:17:24;2.55;;;1.65;;
7523;SDS011;3803;51.666;7.630;2023-04-24T01:17:44;2.03;;;1.70;;
7523;SDS011;3803;51.666;7.630;2023-04-24T01:18:05;2.30;;;1.70;;
7523;SDS011;3803;51.666;7.630;2023-04-24T01:18:26;2.15;;;1.75;;
7523;SDS011;3803;51.666;7.630;2023-04-24T01:18:48;1.65;;;1.55;;
7523;SDS011;3803;51.666;7.630;2023-04-24T01:19:09;1.67;;;1.58;;
7523;SDS011;3803;51.666;7.630;2023-04-24T01:19:32;1.70;;;1.60;;
7523;SDS011;3803;51.666;7.630;2023-04-24T01:19:53;1.73;;;1.63;;
7523;SDS011;3803;51.666;7.630;2023-04-24T01:20:13;1.60;;;1.50;;
7523;SDS011;3803;51.666;7.630;2023-04-24T01:20:36;1.50;;;1.40;;
7523;SDS011;3803;51.666;7.630;2023-04-24T01:21:00;1.73;;;1.52;;
7523;SDS011;3803;51.666;7.630;2023-04-24T01:21:26;2.10;;;1.80;;
7523;SDS011;3803;51.666;7.630;2023-04-24T01:21:52;3.00;;;1.70;;
7523;SDS011;3803;51.666;7.630;2023-04-24T01:22:15;2.55;;;1.60;;
7523;SDS011;3803;51.666;7.630;2023-04-24T01:22:36;4.22;;;1.70;;
7523;SDS011;3803;51.666;7.630;2023-04-24T01:22:57;4.20;;;1.73;;
7523;SDS011;3803;51.666;7.630;2023-04-24T01:23:58;2.30;;;1.80;;
7523;SDS011;3803;51.666;7.630;2023-04-24T01:24:19;2.30;;;1.80;;
7523;SDS011;3803;51.666;7.630;2023-04-24T01:24:40;2.45;;;1.80;;
7523;SDS011;3803;51.666;7.630;2023-04-24T01:25:02;2.15;;;1.63;;
7523;SDS011;3803;51.666;7.630;2023-04-24T01:25:24;2.60;;;1.63;;
7523;SDS011;3803;51.666;7.630;2023-04-24T01:25:46;2.00;;;1.70;;
7523;SDS011;3803;51.666;7.630;2023-04-24T01:26:06;2.10;;;1.70;;
7523;SDS011;3803;51.666;7.630;2023-04-24T01:26:27;1.98;;;1.80;;
7523;SDS011;3803;51.666;7.630;2023-04-24T01:26:48;1.87;;;1.77;;
7523;SDS011;3803;51.666;7.630;2023-04-24T01:27:09;1.80;;;1.70;;
7523;SDS011;3803;51.666;7.630;2023-04-24T01:27:30;1.90;;;1.80;;
7523;SDS011;3803;51.666;7.630;2023-04-24T01:28:21;1.70;;;1.60;;
7523;SDS011;3803;51.666;7.630;2023-04-24T01:28:43;1.90;;;1.70;;
7523;SDS011;3803;51.666;7.630;2023-04-24T01:29:03;2.10;;;1.80;;
7523;SDS011;3803;51.666;7.630;2023-04-24T01:29:24;2.00;;;1.73;;
7523;SDS011;3803;51.666;7.630;2023-04-24T01:29:45;2.10;;;1.70;;
7523;SDS011;3803;51.666;7.630;2023-04-24T01:30:06;1.90;;;1.70;;
7523;SDS011;3803;51.666;7.630;2023-04-24T01:30:27;2.10;;;1.90;;
7523;SDS011;3803;51.666;7.630;2023-04-24T01:30:49;2.10;;;1.90;;
7523;SDS011;3803;51.666;7.630;2023-04-24T01:31:10;1.95;;;1.75;;
7523;SDS011;3803;51.666;7.630;2023-04-24T01:31:30;1.80;;;1.60;;
7523;SDS011;3803;51.666;7.630;2023-04-24T01:31:52;1.80;;;1.60;;
7523;SDS011;3803;51.666;7.630;2023-04-24T01:32:13;2.28;;;1.73;;
7523;SDS011;3803;51.666;7.630;2023-04-24T01:32:34;2.85;;;1.80;;
7523;SDS011;3803;51.666;7.630;2023-04-24T01:32:56;2.95;;;1.80;;
7523;SDS011;3803;51.666;7.630;2023-04-24T01:33:20;3.08;;;1.70;;
7523;SDS011;3803;51.666;7.630;2023-04-24T01:33:42;2.70;;;1.60;;
7523;SDS011;3803;51.666;7.630;2023-04-24T01:34:03;2.72;;;1.60;;
7523;SDS011;3803;51.666;7.630;2023-04-24T01:34:24;1.90;;;1.50;;
7523;SDS011;3803;51.666;7.630;2023-04-24T01:34:45;2.00;;;1.80;;
7523;SDS011;3803;51.666;7.630;2023-04-24T01:35:07;2.17;;;1.98;;
7523;SDS011;3803;51.666;7.630;2023-04-24T01:35:28;2.25;;;2.00;;
7523;SDS011;3803;51.666;7.630;2023-04-24T01:35:48;2.17;;;1.73;;
7523;SDS011;3803;51.666;7.630;2023-04-24T01:36:10;2.63;;;1.60;;
7523;SDS011;3803;51.666;7.630;2023-04-24T01:36:31;2.15;;;1.60;;
7523;SDS011;3803;51.666;7.630;2023-04-24T01:36:53;2.20;;;1.75;;
7523;SDS011;3803;51.666;7.630;2023-04-24T01:37:14;2.45;;;1.83;;
7523;SDS011;3803;51.666;7.630;2023-04-24T01:37:36;2.63;;;1.90;;
7523;SDS011;3803;51.666;7.630;2023-04-24T01:38:00;2.00;;;1.80;;
7523;SDS011;3803;51.666;7.630;2023-04-24T01:38:22;1.73;;;1.63;;
7523;SDS011;3803;51.666;7.630;2023-04-24T01:38:42;1.60;;;1.50;;
7523;SDS011;3803;51.666;7.630;2023-04-24T01:39:04;1.70;;;1.60;;
7523;SDS011;3803;51.666;7.630;2023-04-24T01:39:25;1.80;;;1.70;;
7523;SDS011;3803;51.666;7.630;2023-04-24T01:39:48;2.00;;;1.80;;
7523;SDS011;3803;51.666;7.630;2023-04-24T01:40:09;2.87;;;1.80;;
7523;SDS011;3803;51.666;7.630;2023-04-24T01:40:30;2.70;;;1.70;;
7523;SDS011;3803;51.666;7.630;2023-04-24T01:40:51;3.00;;;1.77;;
7523;SDS011;3803;51.666;7.630;2023-04-24T01:41:13;2.20;;;1.73;;
7523;SDS011;3803;51.666;7.630;2023-04-24T01:41:33;2.47;;;1.80;;
7523;SDS011;3803;51.666;7.630;2023-04-24T01:41:55;1.90;;;1.70;;
7523;SDS011;3803;51.666;7.630;2023-04-24T01:42:16;3.20;;;1.73;;
7523;SDS011;3803;51.666;7.630;2023-04-24T01:42:37;2.92;;;1.80;;
7523;SDS011;3803;51.666;7.630;2023-04-24T01:42:58;3.15;;;1.90;;
7523;SDS011;3803;51.666;7.630;2023-04-24T01:43:19;3.20;;;2.00;;
7523;SDS011;3803;51.666;7.630;2023-04-24T01:43:40;2.92;;;1.95;;
7523;SDS011;3803;51.666;7.630;2023-04-24T01:44:01;2.15;;;1.95;;
7523;SDS011;3803;51.666;7.630;2023-04-24T01:44:22;2.20;;;1.90;;
7523;SDS011;3803;51.666;7.630;2023-04-24T01:44:43;2.17;;;1.98;;
7523;SDS011;3803;51.666;7.630;2023-04-24T01:45:04;2.30;;;2.00;;
7523;SDS011;3803;51.666;7.630;2023-04-24T01:45:26;2.22;;;2.00;;
7523;SDS011;3803;51.666;7.630;2023-04-24T01:45:46;2.40;;;2.00;;
7523;SDS011;3803;51.666;7.630;2023-04-24T01:46:07;2.43;;;1.90;;
7523;SDS011;3803;51.666;7.630;2023-04-24T01:46:30;2.72;;;1.90;;
7523;SDS011;3803;51.666;7.630;2023-04-24T01:46:51;3.00;;;1.80;;
7523;SDS011;3803;51.666;7.630;2023-04-24T01:47:14;2.60;;;1.80;;
7523;SDS011;3803;51.666;7.630;2023-04-24T01:47:34;2.78;;;1.80;;
7523;SDS011;3803;51.666;7.630;2023-04-24T01:47:55;2.72;;;1.80;;
7523;SDS011;3803;51.666;7.630;2023-04-24T01:48:18;3.10;;;1.83;;
7523;SDS011;3803;51.666;7.630;2023-04-24T01:48:38;2.20;;;1.90;;
7523;SDS011;3803;51.666;7.630;2023-04-24T01:49:00;2.10;;;1.90;;
7523;SDS011;3803;51.666;7.630;2023-04-24T01:49:21;2.30;;;2.10;;
7523;SDS011;3803;51.666;7.630;2023-04-24T01:49:42;2.40;;;2.20;;
7523;SDS011;3803;51.666;7.630;2023-04-24T01:50:03;2.40;;;2.20;;
7523;SDS011;3803;51.666;7.630;2023-04-24T01:50:26;3.70;;;2.00;;
7523;SDS011;3803;51.666;7.630;2023-04-24T01:50:46;3.50;;;2.00;;
7523;SDS011;3803;51.666;7.630;2023-04-24T01:51:07;3.40;;;1.90;;
7523;SDS011;3803;51.666;7.630;2023-04-24T01:51:27;2.15;;;1.95;;
7523;SDS011;3803;51.666;7.630;2023-04-24T01:51:48;2.28;;;2.08;;
7523;SDS011;3803;51.666;7.630;2023-04-24T01:52:09;2.70;;;2.00;;
7523;SDS011;3803;51.666;7.630;2023-04-24T01:52:30;2.97;;;2.08;;
7523;SDS011;3803;51.666;7.630;2023-04-24T01:52:53;2.22;;;1.80;;
7523;SDS011;3803;51.666;7.630;2023-04-24T01:53:13;1.90;;;1.80;;
7523;SDS011;3803;51.666;7.630;2023-04-24T01:53:34;2.80;;;1.70;;
7523;SDS011;3803;51.666;7.630;2023-04-24T01:53:56;3.00;;;1.80;;
7523;SDS011;3803;51.666;7.630;2023-04-24T01:54:17;1.95;;;1.65;;
7523;SDS011;3803;51.666;7.630;2023-04-24T01:54:38;1.70;;;1.60;;
7523;SDS011;3803;51.666;7.630;2023-04-24T01:55:53;4.50;;;2.20;;
7523;SDS011;3803;51.666;7.630;2023-04-24T01:56:14;4.60;;;2.20;;
7523;SDS011;3803;51.666;7.630;2023-04-24T01:56:35;3.60;;;2.10;;
7523;SDS011;3803;51.666;7.630;2023-04-24T01:56:59;3.33;;;1.90;;
7523;SDS011;3803;51.666;7.630;2023-04-24T01:57:22;3.10;;;1.80;;
7523;SDS011;3803;51.666;7.630;2023-04-24T01:57:43;2.20;;;1.90;;
7523;SDS011;3803;51.666;7.630;2023-04-24T01:58:04;2.05;;;1.85;;
7523;SDS011;3803;51.666;7.630;2023-04-24T01:58:25;2.08;;;1.80;;
7523;SDS011;3803;51.666;7.630;2023-04-24T01:58:46;2.15;;;1.80;;
7523;SDS011;3803;51.666;7.630;2023-04-24T01:59:06;3.53;;;1.90;;
7523;SDS011;3803;51.666;7.630;2023-04-24T01:59:28;3.55;;;1.85;;
7523;SDS011;3803;51.666;7.630;2023-04-24T01:59:50;3.42;;;2.00;;
7523;SDS011;3803;51.666;7.630;2023-04-24T02:00:11;3.10;;;2.05;;
7523;SDS011;3803;51.666;7.630;2023-04-24T02:00:35;3.00;;;2.10;;
7523;SDS011;3803;51.666;7.630;2023-04-24T02:00:56;2.78;;;2.00;;
7523;SDS011;3803;51.666;7.630;2023-04-24T02:01:19;2.67;;;2.10;;
7523;SDS011;3803;51.666;7.630;2023-04-24T02:01:41;2.45;;;2.10;;
7523;SDS011;3803;51.666;7.630;2023-04-24T02:02:02;2.60;;;2.07;;
7523;SDS011;3803;51.666;7.630;2023-04-24T02:03:20;2.38;;;2.03;;
7523;SDS011;3803;51.666;7.630;2023-04-24T02:03:43;3.30;;;2.10;;
7523;SDS011;3803;51.666;7.630;2023-04-24T02:04:04;3.43;;;2.10;;
7523;SDS011;3803;51.666;7.630;2023-04-24T02:04:26;2.90;;;1.90;;
7523;SDS011;3803;51.666;7.630;2023-04-24T02:04:46;2.20;;;2.00;;
7523;SDS011;3803;51.666;7.630;2023-04-24T02:05:57;3.20;;;2.10;;
7523;SDS011;3803;51.666;7.630;2023-04-24T02:06:18;2.83;;;1.90;;
7523;SDS011;3803;51.666;7.630;2023-04-24T02:06:39;1.92;;;1.83;;
7523;SDS011;3803;51.666;7.630;2023-04-24T02:06:59;2.80;;;1.92;;
7523;SDS011;3803;51.666;7.630;2023-04-24T02:07:20;3.10;;;2.00;;
7523;SDS011;3803;51.666;7.630;2023-04-24T02:07:41;3.20;;;2.00;;
7523;SDS011;3803;51.666;7.630;2023-04-24T02:08:03;2.30;;;2.10;;
7523;SDS011;3803;51.666;7.630;2023-04-24T02:08:24;2.13;;;2.00;;
7523;SDS011;3803;51.666;7.630;2023-04-24T02:08:45;2.30;;;2.10;;
7523;SDS011;3803;51.666;7.630;2023-04-24T02:09:05;2.25;;;2.05;;
7523;SDS011;3803;51.666;7.630;2023-04-24T02:09:26;2.30;;;2.10;;
7523;SDS011;3803;51.666;7.630;2023-04-24T02:09:47;2.20;;;2.00;;
7523;SDS011;3803;51.666;7.630;2023-04-24T02:10:08;2.80;;;2.00;;
7523;SDS011;3803;51.666;7.630;2023-04-24T02:10:29;3.00;;;2.08;;
7523;SDS011;3803;51.666;7.630;2023-04-24T02:10:52;2.30;;;1.90;;
7523;SDS011;3803;51.666;7.630;2023-04-24T02:11:13;2.20;;;2.00;;
7523;SDS011;3803;51.666;7.630;2023-04-24T02:11:33;2.43;;;2.20;;
7523;SDS011;3803;51.666;7.630;2023-04-24T02:11:54;2.53;;;2.20;;
7523;SDS011;3803;51.666;7.630;2023-04-24T02:12:15;3.90;;;2.20;;
7523;SDS011;3803;51.666;7.630;2023-04-24T02:12:38;3.88;;;2.10;;
7523;SDS011;3803;51.666;7.630;2023-04-24T02:12:59;3.13;;;2.10;;
7523;SDS011;3803;51.666;7.630;2023-04-24T02:13:20;2.60;;;2.10;;
7523;SDS011;3803;51.666;7.630;2023-04-24T02:13:41;2.25;;;2.05;;
7523;SDS011;3803;51.666;7.630;2023-04-24T02:14:01;2.15;;;1.95;;
7523;SDS011;3803;51.666;7.630;2023-04-24T02:14:22;2.30;;;2.00;;
7523;SDS011;3803;51.666;7.630;2023-04-24T02:14:43;2.30;;;2.10;;
7523;SDS011;3803;51.666;7.630;2023-04-24T02:15:04;2.47;;;2.10;;
7523;SDS011;3803;51.666;7.630;2023-04-24T02:15:25;2.20;;;2.00;;
7523;SDS011;3803;51.666;7.630;2023-04-24T02:15:46;2.40;;;2.00;;
7523;SDS011;3803;51.666;7.630;2023-04-24T02:16:06;2.30;;;2.10;;
7523;SDS011;3803;51.666;7.630;2023-04-24T02:16:27;2.60;;;2.20;;
7523;SDS011;3803;51.666;7.630;2023-04-24T02:16:51;2.40;;;2.10;;
7523;SDS011;3803;51.666;7.630;2023-04-24T02:17:11;3.30;;;2.10;;
7523;SDS011;3803;51.666;7.630;2023-04-24T02:17:33;3.38;;;2.08;;